Time;durP1;ratioP1;P1;durP2;ratioP2;P2;SDS_P1;SDS_P2;PMS_P1;PMS_P2;Temp;Humidity;BMP_temperature;BMP_pressure;BME280_temperature;BME280_humidity;BME280_pressure;Samples;Min_cycle;Max_cycle;Signal;HPM_P1;HPM_P2
2021/10/14 00:00:55;;;;;;;;;51.67;41.67;;;;;;;;4763495;29;45578;-77
2021/10/14 00:03:20;;;;;;;;;52.00;41.50;;;;;;;;4767197;29;46244;-78
2021/10/14 00:05:46;;;;;;;;;49.00;39.50;;;;;;;;4763565;29;46276;-78
2021/10/14 00:08:11;;;;;;;;;53.00;41.50;;;;;;;;4765438;29;46134;-77
2021/10/14 00:10:37;;;;;;;;;47.25;40.25;;;;;;;;4757333;29;45975;-78
2021/10/14 00:13:02;;;;;;;;;51.67;43.00;;;;;;;;4766043;29;45888;-78
2021/10/14 00:15:27;;;;;;;;;42.50;37.00;;;;;;;;4770319;29;55378;-77
2021/10/14 00:17:52;;;;;;;;;41.33;37.67;;;;;;;;4763029;29;46805;-78
2021/10/14 00:20:18;;;;;;;;;47.00;39.75;;;;;;;;4760417;29;47118;-78
2021/10/14 00:22:43;;;;;;;;;47.67;40.67;;;;;;;;4773108;29;46049;-78
2021/10/14 00:25:08;;;;;;;;;51.00;40.25;;;;;;;;4774067;29;45503;-77
2021/10/14 00:27:34;;;;;;;;;50.00;40.67;;;;;;;;4769333;29;45566;-78
2021/10/14 00:29:59;;;;;;;;;45.50;41.00;;;;;;;;4762360;29;45826;-77
2021/10/14 00:32:24;;;;;;;;;49.25;39.50;;;;;;;;4766442;29;45946;-78
2021/10/14 00:34:49;;;;;;;;;47.25;35.50;;;;;;;;4758005;29;45827;-78
2021/10/14 00:37:15;;;;;;;;;42.00;40.00;;;;;;;;4771002;29;48466;-78
2021/10/14 00:39:40;;;;;;;;;52.00;41.33;;;;;;;;4784246;29;45850;-78
2021/10/14 00:42:06;;;;;;;;;49.00;38.33;;;;;;;;4768288;29;44965;-77
2021/10/14 00:44:41;;;;;;;;;41.75;40.50;;;;;;;;4767418;29;45849;-77
2021/10/14 00:47:06;;;;;;;;;51.75;42.00;;;;;;;;4765667;29;46602;-77
2021/10/14 00:49:31;;;;;;;;;48.33;39.67;;;;;;;;4767893;29;237679;-78
2021/10/14 00:51:57;;;;;;;;;57.00;40.33;;;;;;;;4772449;29;45568;-77
2021/10/14 00:54:22;;;;;;;;;50.67;38.67;;;;;;;;4774671;29;45987;-77
2021/10/14 00:56:47;;;;;;;;;45.25;38.50;;;;;;;;4762416;29;198449;-78
2021/10/14 00:59:13;;;;;;;;;52.00;41.33;;;;;;;;4756513;29;45955;-77
2021/10/14 01:01:38;;;;;;;;;52.50;41.00;;;;;;;;4775411;29;70472;-77
2021/10/14 01:04:04;;;;;;;;;50.33;42.00;;;;;;;;4759329;29;191490;-78
2021/10/14 01:06:29;;;;;;;;;47.25;40.25;;;;;;;;4753929;29;99479;-78
2021/10/14 01:08:55;;;;;;;;;51.33;41.00;;;;;;;;4761479;29;123175;-77
2021/10/14 01:11:20;;;;;;;;;55.67;41.67;;;;;;;;4724424;29;672253;-78
2021/10/14 01:13:45;;;;;;;;;55.67;41.33;;;;;;;;4763301;29;44978;-78
2021/10/14 01:16:10;;;;;;;;;55.67;40.00;;;;;;;;4765158;29;45522;-78
2021/10/14 01:18:35;;;;;;;;;58.67;44.67;;;;;;;;4767419;29;45796;-77
2021/10/14 01:21:01;;;;;;;;;47.33;40.00;;;;;;;;4765405;29;47589;-78
2021/10/14 01:23:26;;;;;;;;;47.00;39.00;;;;;;;;4759691;29;45660;-78
2021/10/14 01:25:51;;;;;;;;;51.00;40.33;;;;;;;;4759641;29;45839;-78
2021/10/14 01:28:16;;;;;;;;;55.33;44.33;;;;;;;;4765084;29;45926;-78
2021/10/14 01:30:42;;;;;;;;;48.67;41.00;;;;;;;;4762235;29;45614;-78
2021/10/14 01:33:08;;;;;;;;;57.50;42.50;;;;;;;;4746142;29;46333;-78
2021/10/14 01:35:33;;;;;;;;;59.25;45.25;;;;;;;;4758790;29;46547;-78
2021/10/14 01:37:58;;;;;;;;;52.50;41.50;;;;;;;;4761701;29;45857;-78
2021/10/14 01:40:23;;;;;;;;;53.33;41.33;;;;;;;;4767625;29;45721;-78
2021/10/14 01:42:49;;;;;;;;;41.33;38.33;;;;;;;;4763389;29;46301;-78
2021/10/14 01:45:14;;;;;;;;;47.00;40.33;;;;;;;;4759510;29;109268;-78
2021/10/14 01:47:39;;;;;;;;;43.00;38.75;;;;;;;;4759511;29;45764;-78
2021/10/14 01:50:05;;;;;;;;;57.00;41.00;;;;;;;;4758472;29;47471;-77
2021/10/14 01:55:16;;;;;;;;;55.75;41.75;;;;;;;;4425913;24;15702331;-96
2021/10/14 01:58:03;;;;;;;;;46.00;39.50;;;;;;;;4806863;29;44864;-96
2021/10/14 02:00:50;;;;;;;;;45.50;39.25;;;;;;;;4806255;24;45743;-77
2021/10/14 02:03:15;;;;;;;;;39.50;36.50;;;;;;;;4797035;29;46075;-77
2021/10/14 02:05:41;;;;;;;;;47.75;39.50;;;;;;;;4792750;29;45817;-77
2021/10/14 02:08:06;;;;;;;;;44.00;39.67;;;;;;;;4794008;29;46164;-78
2021/10/14 02:10:31;;;;;;;;;47.33;40.00;;;;;;;;4797003;29;47018;-78
2021/10/14 02:12:57;;;;;;;;;49.00;39.25;;;;;;;;4789350;29;46542;-77
2021/10/14 02:15:22;;;;;;;;;43.25;37.50;;;;;;;;4793278;29;45694;-77
2021/10/14 02:17:48;;;;;;;;;45.25;37.75;;;;;;;;4794836;29;45780;-77
2021/10/14 02:20:13;;;;;;;;;42.00;37.75;;;;;;;;4793269;29;88629;-78
2021/10/14 02:22:39;;;;;;;;;30.75;28.00;;;;;;;;4797645;29;45679;-77
2021/10/14 02:25:08;;;;;;;;;37.50;34.25;;;;;;;;4794637;29;45675;-77
2021/10/14 02:27:33;;;;;;;;;42.25;37.75;;;;;;;;4798051;29;47607;-78
2021/10/14 02:29:58;;;;;;;;;49.00;37.67;;;;;;;;4789883;29;46260;-78
2021/10/14 02:32:24;;;;;;;;;36.67;35.00;;;;;;;;4789958;29;45551;-77
2021/10/14 02:34:49;;;;;;;;;40.33;35.67;;;;;;;;4800897;29;58528;-78
2021/10/14 02:37:14;;;;;;;;;34.25;28.75;;;;;;;;4786365;29;64342;-78
2021/10/14 02:39:39;;;;;;;;;35.00;30.00;;;;;;;;4794840;29;45588;-77
2021/10/14 02:42:05;;;;;;;;;35.67;32.00;;;;;;;;4795990;29;45745;-78
2021/10/14 02:44:30;;;;;;;;;45.00;34.00;;;;;;;;4793928;29;47790;-78
2021/10/14 02:46:55;;;;;;;;;43.67;35.33;;;;;;;;4777540;29;45711;-77
2021/10/14 02:49:21;;;;;;;;;34.00;27.00;;;;;;;;4783663;29;48049;-78
2021/10/14 02:51:46;;;;;;;;;39.00;28.25;;;;;;;;4780089;29;46017;-78
2021/10/14 02:54:12;;;;;;;;;41.25;32.75;;;;;;;;4797280;29;45592;-77
2021/10/14 02:56:37;;;;;;;;;40.00;32.75;;;;;;;;4796215;29;46021;-78
2021/10/14 02:59:02;;;;;;;;;30.00;29.00;;;;;;;;4793263;29;46665;-78
2021/10/14 03:01:27;;;;;;;;;42.33;29.00;;;;;;;;4798875;29;45580;-78
2021/10/14 03:03:53;;;;;;;;;48.25;36.25;;;;;;;;4775819;29;45922;-77
2021/10/14 03:06:18;;;;;;;;;40.75;34.50;;;;;;;;4792222;29;47859;-78
2021/10/14 03:08:43;;;;;;;;;37.67;32.00;;;;;;;;4793589;29;52476;-78
2021/10/14 03:11:08;;;;;;;;;38.33;35.67;;;;;;;;4779912;29;46308;-78
2021/10/14 03:13:34;;;;;;;;;40.67;32.67;;;;;;;;4798777;29;45653;-77
2021/10/14 03:15:59;;;;;;;;;42.33;33.67;;;;;;;;4794420;29;45639;-77
2021/10/14 03:18:24;;;;;;;;;36.75;30.25;;;;;;;;4786241;29;47777;-77
2021/10/14 03:20:49;;;;;;;;;36.00;31.00;;;;;;;;4803239;29;47457;-78
2021/10/14 03:23:15;;;;;;;;;33.67;25.33;;;;;;;;4804674;29;192425;-77
2021/10/14 03:25:40;;;;;;;;;34.25;26.75;;;;;;;;4799467;29;45647;-78
2021/10/14 03:28:05;;;;;;;;;37.00;29.33;;;;;;;;4792778;29;45948;-78
2021/10/14 03:30:30;;;;;;;;;17.33;14.33;;;;;;;;4794144;29;48348;-77
2021/10/14 03:32:55;;;;;;;;;39.25;29.00;;;;;;;;4789496;29;46400;-78
2021/10/14 03:35:21;;;;;;;;;38.33;32.00;;;;;;;;4791764;29;45654;-77
2021/10/14 03:37:47;;;;;;;;;29.50;25.75;;;;;;;;4792499;29;45728;-77
2021/10/14 03:40:13;;;;;;;;;36.00;29.00;;;;;;;;4795060;29;45587;-77
2021/10/14 03:42:38;;;;;;;;;31.50;30.00;;;;;;;;4793732;29;45717;-78
2021/10/14 03:45:03;;;;;;;;;40.67;28.00;;;;;;;;4776810;29;56170;-76
2021/10/14 03:47:29;;;;;;;;;40.50;29.50;;;;;;;;4792786;29;45538;-78
2021/10/14 03:49:54;;;;;;;;;35.00;27.00;;;;;;;;4792256;29;45528;-76
2021/10/14 03:52:22;;;;;;;;;28.33;24.33;;;;;;;;4798033;29;46695;-76
2021/10/14 03:54:47;;;;;;;;;32.75;28.75;;;;;;;;4795869;29;45682;-75
2021/10/14 03:57:13;;;;;;;;;35.75;29.25;;;;;;;;4798104;29;45654;-74
2021/10/14 03:59:38;;;;;;;;;33.00;23.00;;;;;;;;4791457;29;46095;-75
2021/10/14 04:02:03;;;;;;;;;32.33;27.33;;;;;;;;4791547;29;45636;-75
2021/10/14 04:04:28;;;;;;;;;29.33;27.33;;;;;;;;4799083;29;45809;-74
2021/10/14 04:06:53;;;;;;;;;28.00;26.33;;;;;;;;4794175;29;59477;-75
2021/10/14 04:09:19;;;;;;;;;31.67;28.33;;;;;;;;4794967;29;47104;-74
2021/10/14 04:11:44;;;;;;;;;29.67;26.33;;;;;;;;4797832;29;45592;-74
2021/10/14 04:14:09;;;;;;;;;26.67;23.00;;;;;;;;4782373;29;476000;-75
2021/10/14 04:16:34;;;;;;;;;31.00;23.67;;;;;;;;4812383;29;45521;-74
2021/10/14 04:19:00;;;;;;;;;29.67;26.00;;;;;;;;4803538;29;77381;-74
2021/10/14 04:21:25;;;;;;;;;26.33;24.00;;;;;;;;4797727;29;45606;-76
2021/10/14 04:23:51;;;;;;;;;33.00;26.50;;;;;;;;4792395;29;54834;-74
2021/10/14 04:26:16;;;;;;;;;33.00;25.50;;;;;;;;4795649;29;45606;-75
2021/10/14 04:28:41;;;;;;;;;33.33;25.00;;;;;;;;4797421;29;45542;-76
2021/10/14 04:31:07;;;;;;;;;32.33;27.00;;;;;;;;4792340;29;45579;-74
2021/10/14 04:33:33;;;;;;;;;27.00;25.00;;;;;;;;4778007;29;46335;-75
2021/10/14 04:36:02;;;;;;;;;30.00;27.00;;;;;;;;4797137;29;47666;-75
2021/10/14 04:38:27;;;;;;;;;23.00;20.75;;;;;;;;4815318;24;44929;-96
2021/10/14 04:40:52;;;;;;;;;32.75;27.00;;;;;;;;4790357;24;443054;-77
2021/10/14 04:43:17;;;;;;;;;22.67;20.00;;;;;;;;4784025;29;46933;-77
2021/10/14 04:45:43;;;;;;;;;27.00;20.33;;;;;;;;4777980;29;46190;-78
2021/10/14 04:48:08;;;;;;;;;23.67;23.67;;;;;;;;4772513;29;45519;-77
2021/10/14 04:50:33;;;;;;;;;23.75;23.25;;;;;;;;4777075;29;46161;-77
2021/10/14 04:52:58;;;;;;;;;24.00;18.33;;;;;;;;4771462;29;46581;-78
2021/10/14 04:55:24;;;;;;;;;24.00;22.67;;;;;;;;4775460;29;45829;-75
2021/10/14 04:57:49;;;;;;;;;20.67;19.00;;;;;;;;4765615;29;46465;-76
2021/10/14 05:00:14;;;;;;;;;22.33;20.00;;;;;;;;4772451;29;45824;-75
2021/10/14 05:02:40;;;;;;;;;24.50;20.75;;;;;;;;4767760;29;45704;-75
2021/10/14 05:05:05;;;;;;;;;24.75;20.25;;;;;;;;4777465;29;46067;-75
2021/10/14 05:07:30;;;;;;;;;25.50;21.00;;;;;;;;4786229;29;45633;-76
2021/10/14 05:09:55;;;;;;;;;29.00;22.00;;;;;;;;4783726;29;45970;-76
2021/10/14 05:12:21;;;;;;;;;26.75;22.00;;;;;;;;4778318;29;46923;-74
2021/10/14 05:14:46;;;;;;;;;21.33;18.00;;;;;;;;4778881;29;46860;-75
2021/10/14 05:17:12;;;;;;;;;23.50;19.25;;;;;;;;4777958;29;45970;-75
2021/10/14 05:19:37;;;;;;;;;28.67;21.67;;;;;;;;4788446;29;45535;-75
2021/10/14 05:22:02;;;;;;;;;34.33;26.67;;;;;;;;4778023;29;45712;-75
2021/10/14 05:24:27;;;;;;;;;27.50;23.00;;;;;;;;4775730;29;46441;-76
2021/10/14 05:26:53;;;;;;;;;25.00;20.75;;;;;;;;4779195;29;47719;-75
2021/10/14 05:29:18;;;;;;;;;23.75;19.25;;;;;;;;4776927;29;45666;-74
2021/10/14 05:36:51;;;;;;;;;30.00;20.75;;;;;;;;4941933;24;45894;-75
2021/10/14 05:39:16;;;;;;;;;20.33;17.00;;;;;;;;4808499;29;157848;-75
2021/10/14 05:41:42;;;;;;;;;22.67;18.00;;;;;;;;4802545;29;45600;-75
2021/10/14 05:44:07;;;;;;;;;30.75;25.00;;;;;;;;4804565;29;45450;-75
2021/10/14 05:46:33;;;;;;;;;26.50;21.50;;;;;;;;4803920;29;45665;-75
2021/10/14 05:48:58;;;;;;;;;27.25;21.00;;;;;;;;4805442;29;47027;-75
2021/10/14 05:51:23;;;;;;;;;26.67;22.00;;;;;;;;4823252;29;46783;-76
2021/10/14 05:53:49;;;;;;;;;23.33;20.33;;;;;;;;4824594;29;44949;-77
2021/10/14 05:56:14;;;;;;;;;23.25;19.75;;;;;;;;4861202;23;55338;-75
2021/10/14 05:58:39;;;;;;;;;30.25;21.75;;;;;;;;4799675;29;45952;-75
2021/10/14 06:01:06;;;;;;;;;23.33;20.33;;;;;;;;4795185;29;45710;-75
2021/10/14 06:03:31;;;;;;;;;24.00;20.50;;;;;;;;4801021;29;46210;-75
2021/10/14 06:05:56;;;;;;;;;19.25;19.00;;;;;;;;4795573;29;45769;-75
2021/10/14 06:08:21;;;;;;;;;31.00;24.33;;;;;;;;4782147;29;45681;-75
2021/10/14 06:10:46;;;;;;;;;32.33;26.00;;;;;;;;4813530;29;45920;-76
2021/10/14 06:13:12;;;;;;;;;26.00;21.33;;;;;;;;4805999;29;47030;-75
2021/10/14 06:15:37;;;;;;;;;22.00;20.25;;;;;;;;4797103;29;45978;-75
2021/10/14 06:18:02;;;;;;;;;26.25;22.00;;;;;;;;4795944;29;46132;-76
2021/10/14 06:20:28;;;;;;;;;23.00;19.00;;;;;;;;4798982;29;46993;-76
2021/10/14 06:22:53;;;;;;;;;24.75;22.50;;;;;;;;4804039;29;45671;-76
2021/10/14 06:25:18;;;;;;;;;17.00;15.25;;;;;;;;4802169;29;45846;-76
2021/10/14 06:27:43;;;;;;;;;35.50;26.75;;;;;;;;4798319;29;45856;-75
2021/10/14 06:30:09;;;;;;;;;29.33;23.00;;;;;;;;4800410;29;45889;-74
2021/10/14 06:32:34;;;;;;;;;20.25;18.25;;;;;;;;4800973;29;47159;-76
2021/10/14 06:34:59;;;;;;;;;25.75;24.25;;;;;;;;4801876;29;46819;-75
2021/10/14 06:37:25;;;;;;;;;24.00;21.33;;;;;;;;4782768;29;50453;-74
2021/10/14 06:39:50;;;;;;;;;27.25;26.25;;;;;;;;4778804;29;46261;-75
2021/10/14 06:42:15;;;;;;;;;21.00;21.00;;;;;;;;4783377;29;189683;-74
2021/10/14 06:44:41;;;;;;;;;35.67;31.00;;;;;;;;4792216;29;46584;-74
2021/10/14 06:47:06;;;;;;;;;29.00;25.50;;;;;;;;4781453;29;228376;-74
2021/10/14 06:49:31;;;;;;;;;28.33;28.33;;;;;;;;4796850;29;45672;-75
2021/10/14 06:51:56;;;;;;;;;34.33;27.67;;;;;;;;4796014;29;46285;-74
2021/10/14 06:54:22;;;;;;;;;32.00;28.00;;;;;;;;4793308;29;47646;-75
2021/10/14 06:56:47;;;;;;;;;33.25;29.25;;;;;;;;4793876;29;47512;-75
2021/10/14 06:59:13;;;;;;;;;34.00;29.00;;;;;;;;4784490;29;46381;-75
2021/10/14 07:01:38;;;;;;;;;33.67;27.00;;;;;;;;4797690;29;47874;-74
2021/10/14 07:04:03;;;;;;;;;32.00;27.33;;;;;;;;4798410;29;118263;-76
2021/10/14 07:06:28;;;;;;;;;30.00;25.75;;;;;;;;4781489;29;45730;-75
2021/10/14 07:08:53;;;;;;;;;33.67;27.67;;;;;;;;4803121;29;46398;-75
2021/10/14 07:11:19;;;;;;;;;34.33;28.00;;;;;;;;4795204;29;45850;-74
2021/10/14 07:13:45;;;;;;;;;40.50;31.25;;;;;;;;4795253;29;45814;-76
2021/10/14 07:16:10;;;;;;;;;31.25;29.00;;;;;;;;4794914;29;45595;-75
2021/10/14 07:18:36;;;;;;;;;38.25;32.75;;;;;;;;4778892;29;45550;-74
2021/10/14 07:21:01;;;;;;;;;42.67;29.67;;;;;;;;4794755;29;45675;-75
2021/10/14 07:23:27;;;;;;;;;35.25;34.00;;;;;;;;4794149;29;45946;-75
2021/10/14 07:25:53;;;;;;;;;37.25;33.50;;;;;;;;4778811;29;46671;-74
2021/10/14 07:30:54;;;;;;;;;43.75;33.00;;;;;;;;4844164;24;56696;-75
2021/10/14 07:33:19;;;;;;;;;46.75;33.25;;;;;;;;4795653;29;45492;-75
2021/10/14 07:35:45;;;;;;;;;44.25;30.75;;;;;;;;4797596;29;46144;-74
2021/10/14 07:38:10;;;;;;;;;42.33;33.67;;;;;;;;4796604;29;45673;-75
2021/10/14 07:40:38;;;;;;;;;39.75;36.00;;;;;;;;4801971;29;45843;-75
2021/10/14 07:43:04;;;;;;;;;42.75;35.50;;;;;;;;4786675;29;45941;-74
2021/10/14 07:45:29;;;;;;;;;51.25;38.00;;;;;;;;4785573;29;386329;-76
2021/10/14 07:47:54;;;;;;;;;39.00;33.67;;;;;;;;4789532;29;46137;-75
2021/10/14 07:50:20;;;;;;;;;45.00;37.00;;;;;;;;4790507;29;45616;-75
2021/10/14 07:52:45;;;;;;;;;41.00;33.67;;;;;;;;4797504;29;45647;-75
2021/10/14 07:55:10;;;;;;;;;42.25;35.50;;;;;;;;4796845;29;45877;-74
2021/10/14 07:57:36;;;;;;;;;42.33;35.67;;;;;;;;4801064;29;60772;-74
2021/10/14 08:00:02;;;;;;;;;48.75;37.75;;;;;;;;4795038;29;45695;-75
2021/10/14 08:02:27;;;;;;;;;40.75;37.25;;;;;;;;4797844;29;45639;-76
2021/10/14 08:04:55;;;;;;;;;39.00;37.00;;;;;;;;4797941;29;45805;-74
2021/10/14 08:07:20;;;;;;;;;42.50;36.25;;;;;;;;4794522;29;45706;-75
2021/10/14 08:09:45;;;;;;;;;40.67;35.00;;;;;;;;4797976;29;47026;-75
2021/10/14 08:12:11;;;;;;;;;43.00;37.00;;;;;;;;4796002;29;47082;-75
2021/10/14 08:14:36;;;;;;;;;45.25;37.50;;;;;;;;4792211;29;45778;-74
2021/10/14 08:17:02;;;;;;;;;48.25;40.00;;;;;;;;4800576;29;59923;-75
2021/10/14 08:19:27;;;;;;;;;56.00;41.00;;;;;;;;4794048;29;46361;-73
2021/10/14 08:21:52;;;;;;;;;43.33;36.67;;;;;;;;4796931;29;45819;-75
2021/10/14 08:24:18;;;;;;;;;47.67;37.67;;;;;;;;4800224;29;45850;-75
2021/10/14 08:26:43;;;;;;;;;52.50;40.00;;;;;;;;4797835;29;45592;-74
2021/10/14 08:29:09;;;;;;;;;41.33;36.33;;;;;;;;4794831;29;45974;-75
2021/10/14 08:31:34;;;;;;;;;44.67;38.33;;;;;;;;4802500;29;45529;-76
2021/10/14 08:34:01;;;;;;;;;42.00;38.33;;;;;;;;4797849;29;46069;-75
2021/10/14 08:36:26;;;;;;;;;46.75;35.50;;;;;;;;4800501;29;45845;-75
2021/10/14 08:38:52;;;;;;;;;48.00;37.00;;;;;;;;4801913;29;45958;-75
2021/10/14 08:41:18;;;;;;;;;42.25;34.50;;;;;;;;4795680;29;129763;-75
2021/10/14 08:43:44;;;;;;;;;37.75;31.50;;;;;;;;4800611;29;265762;-76
2021/10/14 08:46:10;;;;;;;;;49.75;35.50;;;;;;;;4426374;29;3862307;-76
2021/10/14 08:48:36;;;;;;;;;37.25;33.25;;;;;;;;4711736;29;1598587;-75
2021/10/14 08:51:01;;;;;;;;;38.33;34.00;;;;;;;;4733825;29;1756862;-75
2021/10/14 08:53:26;;;;;;;;;47.50;36.50;;;;;;;;4713635;29;1632707;-75
2021/10/14 08:55:52;;;;;;;;;44.75;39.00;;;;;;;;4773527;29;733747;-74
2021/10/14 08:58:17;;;;;;;;;42.67;36.33;;;;;;;;4807321;29;45635;-75
2021/10/14 09:01:02;;;;;;;;;37.67;34.00;;;;;;;;4796920;29;46612;-76
2021/10/14 09:03:32;;;;;;;;;40.50;35.25;;;;;;;;4786563;29;687237;-77
2021/10/14 09:05:58;;;;;;;;;44.25;36.50;;;;;;;;4793282;29;50536;-75
2021/10/14 09:08:36;;;;;;;;;40.50;33.00;;;;;;;;4754880;29;1255196;-75
2021/10/14 09:11:13;;;;;;;;;43.25;36.75;;;;;;;;4758121;29;1328702;-75
2021/10/14 09:13:43;;;;;;;;;41.25;34.50;;;;;;;;4812152;29;46097;-75
2021/10/14 09:16:19;;;;;;;;;38.25;33.00;;;;;;;;4726962;29;1680807;-75
2021/10/14 09:18:44;;;;;;;;;37.25;31.00;;;;;;;;4791990;29;46105;-77
2021/10/14 09:21:19;;;;;;;;;39.25;28.75;;;;;;;;4799663;29;45547;-76
2021/10/14 09:23:44;;;;;;;;;32.00;26.75;;;;;;;;4798412;29;46116;-75
2021/10/14 09:26:10;;;;;;;;;35.67;30.33;;;;;;;;4803455;29;140021;-75
2021/10/14 09:28:35;;;;;;;;;33.33;33.00;;;;;;;;4798434;29;106574;-76
2021/10/14 09:31:01;;;;;;;;;34.33;28.67;;;;;;;;4800240;29;46289;-76
2021/10/14 09:33:27;;;;;;;;;32.50;29.00;;;;;;;;4797882;29;52394;-75
2021/10/14 09:35:52;;;;;;;;;30.33;27.67;;;;;;;;4797959;29;45520;-74
2021/10/14 09:38:29;;;;;;;;;30.33;25.67;;;;;;;;4799836;29;45855;-76
2021/10/14 09:41:05;;;;;;;;;37.25;28.50;;;;;;;;4801214;29;46148;-76
2021/10/14 09:43:31;;;;;;;;;24.50;20.50;;;;;;;;4796007;29;46019;-76
2021/10/14 09:45:56;;;;;;;;;31.50;22.50;;;;;;;;4794617;29;45640;-77
2021/10/14 09:48:22;;;;;;;;;28.75;20.25;;;;;;;;4801520;29;46553;-76
2021/10/14 09:50:47;;;;;;;;;25.00;20.25;;;;;;;;4797093;29;45554;-75
2021/10/14 09:53:17;;;;;;;;;29.75;20.75;;;;;;;;4795950;29;45631;-75
2021/10/14 09:55:43;;;;;;;;;20.50;17.00;;;;;;;;4770373;29;830341;-75
2021/10/14 09:58:08;;;;;;;;;19.50;19.50;;;;;;;;4797427;29;45779;-76
2021/10/14 10:00:35;;;;;;;;;17.25;17.25;;;;;;;;4795479;29;45937;-75
2021/10/14 10:03:02;;;;;;;;;20.25;19.25;;;;;;;;4788264;29;45580;-75
2021/10/14 10:05:29;;;;;;;;;20.50;20.25;;;;;;;;4799413;29;45895;-76
2021/10/14 10:07:56;;;;;;;;;17.50;14.00;;;;;;;;4800959;29;46204;-76
2021/10/14 10:10:23;;;;;;;;;18.75;15.00;;;;;;;;4796714;29;47955;-76
2021/10/14 10:12:49;;;;;;;;;13.75;13.25;;;;;;;;4789246;29;480971;-75
2021/10/14 10:15:14;;;;;;;;;12.50;9.50;;;;;;;;4778495;29;46483;-76
2021/10/14 10:17:40;;;;;;;;;9.67;9.67;;;;;;;;4794394;29;46255;-76
2021/10/14 10:20:06;;;;;;;;;9.50;8.00;;;;;;;;4798686;29;45606;-76
2021/10/14 10:22:35;;;;;;;;;13.00;11.75;;;;;;;;4795258;29;45501;-76
2021/10/14 10:25:19;;;;;;;;;20.00;13.50;;;;;;;;4795793;29;45838;-76
2021/10/14 10:27:44;;;;;;;;;20.50;12.50;;;;;;;;4795266;29;46174;-75
2021/10/14 10:30:11;;;;;;;;;14.75;12.00;;;;;;;;4799887;29;45753;-75
2021/10/14 10:32:46;;;;;;;;;15.50;14.25;;;;;;;;4801982;29;45407;-76
2021/10/14 10:35:32;;;;;;;;;15.25;14.25;;;;;;;;4773082;29;1318041;-76
2021/10/14 10:38:11;;;;;;;;;14.25;13.00;;;;;;;;4796038;29;49107;-75
2021/10/14 10:40:39;;;;;;;;;19.50;15.50;;;;;;;;4799866;29;48367;-76
2021/10/14 10:43:09;;;;;;;;;15.50;12.25;;;;;;;;4787502;29;254912;-75
2021/10/14 10:45:41;;;;;;;;;14.50;9.00;;;;;;;;4795003;29;48418;-74
2021/10/14 10:48:07;;;;;;;;;10.00;8.25;;;;;;;;4797817;29;45685;-75
2021/10/14 10:50:32;;;;;;;;;11.25;10.00;;;;;;;;4806499;29;61029;-74
2021/10/14 10:53:01;;;;;;;;;9.00;7.00;;;;;;;;4829129;29;45692;-77
2021/10/14 10:55:43;;;;;;;;;8.25;4.50;;;;;;;;4807544;29;45521;-77
2021/10/14 10:58:09;;;;;;;;;10.00;7.00;;;;;;;;4807139;29;48023;-75
2021/10/14 11:00:36;;;;;;;;;10.75;8.00;;;;;;;;4797942;29;45980;-78
2021/10/14 11:03:13;;;;;;;;;10.50;7.75;;;;;;;;4809760;29;86455;-79
2021/10/14 11:05:41;;;;;;;;;4.25;4.25;;;;;;;;4800712;29;46123;-77
2021/10/14 11:08:07;;;;;;;;;3.75;3.75;;;;;;;;4813041;29;45666;-78
2021/10/14 11:10:32;;;;;;;;;7.00;5.50;;;;;;;;5417830;24;46753;-78
2021/10/14 11:12:58;;;;;;;;;6.67;5.00;;;;;;;;4789381;29;70348;-77
2021/10/14 11:15:26;;;;;;;;;4.00;3.00;;;;;;;;4797746;29;46113;-76
2021/10/14 11:17:59;;;;;;;;;8.00;4.50;;;;;;;;4800368;29;44396;-77
2021/10/14 11:20:24;;;;;;;;;5.75;5.75;;;;;;;;4784728;29;47065;-77
2021/10/14 11:22:49;;;;;;;;;4.33;4.33;;;;;;;;4784926;29;473344;-77
2021/10/14 11:25:15;;;;;;;;;7.33;5.67;;;;;;;;4805164;29;32610;-77
2021/10/14 11:27:44;;;;;;;;;5.00;3.75;;;;;;;;4797227;29;45739;-78
2021/10/14 11:30:19;;;;;;;;;4.50;3.00;;;;;;;;4800210;29;44901;-77
2021/10/14 11:32:53;;;;;;;;;4.00;3.00;;;;;;;;4933287;23;45278;-78
2021/10/14 11:35:19;;;;;;;;;2.75;2.75;;;;;;;;4806093;29;45650;-77
2021/10/14 11:37:44;;;;;;;;;8.00;2.00;;;;;;;;4803246;29;46232;-77
2021/10/14 11:40:10;;;;;;;;;4.33;2.33;;;;;;;;4799017;29;45719;-78
2021/10/14 11:42:35;;;;;;;;;7.00;4.00;;;;;;;;4783469;29;45492;-76
2021/10/14 11:45:01;;;;;;;;;6.50;3.00;;;;;;;;4778744;29;492079;-77
2021/10/14 11:47:26;;;;;;;;;1.50;1.00;;;;;;;;4794321;29;47640;-77
2021/10/14 11:50:05;;;;;;;;;3.00;3.00;;;;;;;;4791859;29;45586;-77
2021/10/14 11:52:30;;;;;;;;;3.00;3.00;;;;;;;;4795126;29;45792;-74
2021/10/14 11:55:06;;;;;;;;;7.75;4.00;;;;;;;;4796956;29;45636;-76
2021/10/14 11:57:32;;;;;;;;;7.00;3.00;;;;;;;;4803341;29;45931;-75
2021/10/14 11:59:58;;;;;;;;;4.00;4.00;;;;;;;;4797227;29;45576;-75
2021/10/14 12:02:24;;;;;;;;;4.00;4.00;;;;;;;;4792864;29;46131;-76
2021/10/14 12:04:51;;;;;;;;;6.25;3.00;;;;;;;;4804179;29;45658;-76
2021/10/14 12:07:18;;;;;;;;;2.25;2.25;;;;;;;;4795392;29;45912;-75
2021/10/14 12:09:43;;;;;;;;;3.75;2.75;;;;;;;;4816388;29;28364;-76
2021/10/14 12:12:09;;;;;;;;;5.25;3.00;;;;;;;;4809167;29;44909;-75
2021/10/14 12:14:36;;;;;;;;;6.50;4.25;;;;;;;;4804755;29;45570;-75
2021/10/14 12:17:04;;;;;;;;;8.75;7.25;;;;;;;;4761499;29;1531856;-75
2021/10/14 12:19:35;;;;;;;;;7.00;4.50;;;;;;;;4802693;29;44942;-74
2021/10/14 12:22:05;;;;;;;;;3.00;3.00;;;;;;;;4805955;29;45514;-75
2021/10/14 12:24:31;;;;;;;;;3.00;3.00;;;;;;;;4815954;29;45538;-75
2021/10/14 12:26:57;;;;;;;;;3.50;3.50;;;;;;;;4813751;29;28569;-76
2021/10/14 12:29:28;;;;;;;;;7.50;5.25;;;;;;;;4810256;29;44908;-75
2021/10/14 12:32:03;;;;;;;;;4.00;3.25;;;;;;;;4813884;29;45593;-76
2021/10/14 12:34:58;;;;;;;;;8.00;4.75;;;;;;;;4770195;29;728025;-74
2021/10/14 12:37:27;;;;;;;;;3.50;3.50;;;;;;;;4796600;29;45678;-75
2021/10/14 12:40:09;;;;;;;;;5.00;3.00;;;;;;;;4813924;29;45475;-75
2021/10/14 12:42:55;;;;;;;;;5.00;4.00;;;;;;;;4803815;29;298871;-76
2021/10/14 12:45:28;;;;;;;;;3.75;3.00;;;;;;;;4642587;29;4346965;-76
2021/10/14 12:47:56;;;;;;;;;6.00;3.50;;;;;;;;4811847;29;62980;-74
2021/10/14 12:53:08;;;;;;;;;4.75;4.75;;;;;;;;4818287;29;44809;-77
2021/10/14 12:55:52;;;;;;;;;8.75;5.00;;;;;;;;4804881;29;45527;-77
2021/10/14 12:58:17;;;;;;;;;7.50;3.00;;;;;;;;4784725;29;214180;-78
2021/10/14 13:00:42;;;;;;;;;2.67;2.00;;;;;;;;4801385;29;124352;-77
2021/10/14 13:03:07;;;;;;;;;2.33;2.00;;;;;;;;4806731;29;50828;-77
2021/10/14 13:05:33;;;;;;;;;1.67;1.67;;;;;;;;4808043;29;44881;-77
2021/10/14 13:07:58;;;;;;;;;2.67;2.67;;;;;;;;4801939;29;45710;-77
2021/10/14 13:10:23;;;;;;;;;3.75;3.00;;;;;;;;4801352;29;45436;-78
2021/10/14 13:12:49;;;;;;;;;4.00;2.33;;;;;;;;4801415;29;45423;-76
2021/10/14 13:15:14;;;;;;;;;3.25;3.00;;;;;;;;4785299;29;45734;-77
2021/10/14 13:17:39;;;;;;;;;4.00;4.00;;;;;;;;4694469;29;1815474;-76
2021/10/14 13:20:04;;;;;;;;;3.00;2.25;;;;;;;;4800998;29;422224;-77
2021/10/14 13:22:30;;;;;;;;;4.25;3.50;;;;;;;;4811577;29;45583;-77
2021/10/14 13:24:55;;;;;;;;;2.00;2.00;;;;;;;;4411170;29;8900868;-77
2021/10/14 13:27:20;;;;;;;;;4.33;2.00;;;;;;;;4814554;29;38092;-77
2021/10/14 13:29:45;;;;;;;;;2.00;2.00;;;;;;;;4803093;29;769757;-78
2021/10/14 13:32:11;;;;;;;;;3.00;2.67;;;;;;;;4803839;29;45482;-77
2021/10/14 13:34:37;;;;;;;;;2.25;2.25;;;;;;;;4809428;29;47009;-77
2021/10/14 13:37:10;;;;;;;;;3.00;2.00;;;;;;;;4808712;29;41150;-77
2021/10/14 13:39:35;;;;;;;;;2.00;2.00;;;;;;;;4823969;29;42512;-77
2021/10/14 13:42:01;;;;;;;;;4.00;2.50;;;;;;;;4817756;29;28689;-77
2021/10/14 13:44:31;;;;;;;;;5.00;2.75;;;;;;;;4789689;29;28634;-77
2021/10/14 13:46:56;;;;;;;;;3.00;3.00;;;;;;;;4805337;29;29672;-77
2021/10/14 13:49:22;;;;;;;;;2.00;2.00;;;;;;;;4220642;29;5210094;-77
2021/10/14 13:51:48;;;;;;;;;2.00;2.00;;;;;;;;4098493;29;9248652;-77
2021/10/14 13:54:13;;;;;;;;;4.00;2.00;;;;;;;;4807410;29;28776;-75
2021/10/14 13:56:38;;;;;;;;;1.00;1.00;;;;;;;;4749850;29;1709534;-75
2021/10/14 13:59:03;;;;;;;;;3.75;2.00;;;;;;;;4452077;29;5126770;-76
2021/10/14 14:01:29;;;;;;;;;3.00;2.00;;;;;;;;4637006;29;2923500;-75
2021/10/14 14:03:55;;;;;;;;;5.00;2.00;;;;;;;;4774959;29;401908;-75
2021/10/14 14:06:20;;;;;;;;;3.00;2.00;;;;;;;;4775080;29;845099;-75
2021/10/14 14:08:45;;;;;;;;;4.00;2.33;;;;;;;;4803383;29;30112;-75
2021/10/14 14:11:10;;;;;;;;;3.00;2.00;;;;;;;;4794493;29;306778;-77
2021/10/14 14:13:36;;;;;;;;;4.75;1.75;;;;;;;;4727849;29;1371741;-76
2021/10/14 14:16:01;;;;;;;;;2.00;2.00;;;;;;;;4779615;29;833725;-76
2021/10/14 14:18:26;;;;;;;;;3.00;1.33;;;;;;;;4806679;29;29058;-75
2021/10/14 14:20:51;;;;;;;;;2.25;2.00;;;;;;;;4800749;29;36015;-75
2021/10/14 14:23:16;;;;;;;;;2.00;2.00;;;;;;;;4802354;29;47169;-76
2021/10/14 14:25:42;;;;;;;;;2.00;2.00;;;;;;;;4806389;29;56895;-75
2021/10/14 14:28:08;;;;;;;;;4.50;3.00;;;;;;;;4799573;29;118410;-76
2021/10/14 14:30:33;;;;;;;;;3.00;3.00;;;;;;;;4808231;29;28628;-76